La Guardia Airport
KLGA : rendu visible

Aérodrome :











RETROUVEZ-NOUS SUR...

 
LOGIN :

S'inscrire | Disclaimer

   EN    FR    IT 

 









Légende :    VFR   VFR Marginal   IFR   IFR Intensif   IFR Très Intensif
Visi : 
Plafond : 
>= 8 km
>= 3000ft
5 à 8 km
1000 à 3000 ft
1500m à 5 km
500 à 1000 ft
800 à 1500m
200 à 500 ft
< 800m
< 200 ft
Symboles :   Orages  Brouillard  Fortes neiges  Fortes précipitations  Vent > 20 kt






- Altitude de l'aérodrome : 21 ft
- Code IATA : LGA


KLGA - La Guardia

DERNIER METAR :
  • 241451Z 00000KT 10SM FEW250 10/M02 A3006 RMK AO2 SLP180 T01001017 50002

METARs EXPIRÉS :
  • 241351Z 19004KT 10SM FEW250 08/M01 A3006 RMK AO2 SLP180 T00831011

TAF KLGA
Valide du 24 à 16h jusqu'au 25 à 18h UTC


241543Z 2416/2518 19005KT P6SM FEW250
FM241900 18010KT P6SM BKN250
FM250200 18006KT P6SM OVC100
FM250800 19005KT P6SM SCT025 OVC050
FM251200 VRB04KT P6SM VCSH BKN025 OVC050
FM251600 07006KT 3SM -RA BR OVC009



MET'MAP, la Météo Aéronautique d'un coup d'oeil ! - Copyright ORBIFLY Décembre 2007 - Disclaimer

ORBIFLY MET'MAP TEAM :

Programmation & Développement : Alexandra Zaïnal
Sur une idée originale de : Baudouin d'Aumeries
Assistance à la programmation : Marc-Olivier Méhu
Soutien technique & logistique : Manuel Goepfert

Contact : metmap@orbifly.com




SOURCES & CREDITS :

   NOAA       Earth
Advisory